Steptoe Valley North, Nevada Weather observations

Data are for 10 minute period ending at time listed.
 Day   Time   Solar   Ave.   Ave.  Ave.  Vector  Max.   Baro.   Total    
  of    of     Rad.   Air    Rel.  Wind   Wind   Wind  Press.  Precip.   
Year   Day            Temp.  Hum.  Speed  Dir.   Gust                    
2017   (PST)  Kw/m2    F      %     mph   deg.    mph    mb.     in.     
-------------------------------------------------------------------------
  49   15:00   0.10   44.7    65    9.9   179    13.7   805.4    0.00 
  49   15:10   0.10   44.6    65   11.6   172    15.9   805.4    0.00 
  49   15:20   0.08   44.3    66   12.3   174    16.5   805.4    0.00 
  49   15:30   0.07   43.8    68   13.8   178    19.6   805.4    0.00 
  49   15:40   0.06   43.2    71   14.0   181    18.4   805.6    0.00 
  49   15:50   0.06   42.8    73   13.3   172    17.7   805.8    0.00 
  49   16:00   0.05   42.4    74   11.2   170    15.9   805.8    0.00 
  49   16:10   0.03   42.4    74   12.8   166    18.4   805.8    0.00 
  49   16:20   0.03   42.2    74   12.0   164    16.5   805.9    0.00 
  49   16:30   0.02   42.0    76   12.6   161    18.8   806.0    0.00 
  49   16:40   0.02   41.3    79    9.3   167    13.7   806.0    0.00 
  49   16:50   0.02   41.1    80    8.9   167    16.1   805.9    0.00 
  49   17:00   0.02   41.3    78    8.8   170    13.0   805.9    0.00 
  49   17:10   0.01   41.1    80    7.9   169    10.7   805.9    0.00 
  49   17:20   0.00   40.9    81    5.6   170     8.4   806.0    0.00 
  49   17:30   0.00   40.7    81    6.4   174    10.4   806.1    0.00 
  49   17:40   0.00   40.6    81    8.4   192    17.0   806.1    0.00 
  49   17:50   0.00   40.3    81   14.8   194    23.4   806.1    0.01 
  49   18:00   0.00   40.2    81   17.0   197    22.9   806.1    0.00 
  49   18:10   0.00   39.9    82   16.4   197    22.1   806.2    0.00 
  49   18:20   0.00   39.5    83   14.4   198    20.8   806.2    0.00 
  49   18:30   0.00   39.9    82   17.1   200    22.9   806.2    0.00 
  49   18:40   0.00   39.8    82   16.2   199    21.8   806.3    0.00 
  49   18:50   0.00   39.7    82   15.8   203    21.1   806.3    0.00 
  49   19:00   0.00   39.4    84   12.1   207    17.0   806.3    0.00 
  49   19:10   0.00   39.2    85    9.4   208    13.6   806.3    0.00 
  49   19:20   0.00   39.3    83    9.9   209    13.2   806.4    0.00 
  49   19:30   0.00   39.6    80   14.0   192    24.6   806.3    0.00 
  49   19:40   0.00   39.8    79   16.5   191    21.3   806.1    0.00 
  49   19:50   0.00   39.6    79   16.2   206    22.6   806.3    0.00 
  49   20:00   0.00   39.3    81   14.8   212    19.4   806.4    0.00 
  49   20:10   0.00   39.2    81   14.4   210    19.5   806.4    0.00 
  49   20:20   0.00   39.4    80   14.3   204    19.6   806.4    0.00 
  49   20:30   0.00   39.5    79   14.1   199    20.9   806.4    0.00 
  49   20:40   0.00   39.6    79   15.7   195    21.9   806.4    0.00 
  49   20:50   0.00   39.4    80   14.6   205    20.4   806.5    0.00 
  49   21:00   0.00   39.1    82   13.8   215    18.0   806.6    0.00 
  49   21:10   0.00   39.0    82   15.1   211    21.0   806.6    0.00 
  49   21:20   0.00   39.4    80   18.0   208    25.6   806.5    0.00 
  49   21:30   0.00   39.2    81   15.9   210    21.4   806.6    0.00 
  49   21:40   0.00   38.9    82   15.4   212    19.6   806.7    0.00 
  49   21:50   0.00   38.8    82   14.9   217    18.8   806.7    0.00 
  49   22:00   0.00   38.8    83   12.8   217    17.5   806.9    0.00 
  49   22:10   0.00   38.6    84   11.8   220    16.6   807.0    0.00 
  49   22:20   0.00   38.7    84   12.7   217    16.2   807.0    0.00 
  49   22:30   0.00   39.0    82   13.8   216    20.5   807.0    0.00 
  49   22:40   0.00   39.0    82   12.7   214    17.0   807.0    0.00 
  49   22:50   0.00   38.5    84   10.0   222    13.3   807.1    0.00 
  49   23:00   0.00   38.2    85   10.7   219    13.9   807.1    0.00 
  49   23:10   0.00   38.3    84   11.2   211    14.8   807.1    0.00 
  49   23:20   0.00   38.3    83   11.3   207    15.4   807.1    0.00 
  49   23:30   0.00   38.3    83   10.1   216    15.1   807.3    0.00 
  49   23:40   0.00   38.4    84   11.8   213    16.0   807.4    0.00 
  49   23:50   0.00   38.4    84   13.1   208    17.4   807.4    0.00 
  50    0:00   0.00   38.4    85   15.3   203    21.5   807.3    0.00 
  50    0:10   0.00   38.2    86   15.4   199    20.0   807.4    0.01 
  50    0:20   0.00   38.2    86   18.6   195    25.3   807.2    0.00 
  50    0:30   0.00   38.0    86   19.2   192    26.8   807.1    0.00 
  50    0:40   0.00   38.0    86   19.3   195    25.3   807.1    0.00 
  50    0:50   0.00   37.9    87   17.6   199    24.5   807.2    0.00 
  50    1:00   0.00   37.9    87   18.0   199    24.2   807.3    0.00 
  50    1:10   0.00   37.8    87   16.8   200    22.9   807.4    0.00 
  50    1:20   0.00   37.5    88   15.9   197    21.3   807.4    0.00 
  50    1:30   0.00   37.0    88   16.1   191    22.6   807.3    0.00 
  50    1:40   0.00   36.9    87   16.3   191    23.2   807.2    0.00 
  50    1:50   0.00   36.7    87   15.4   193    20.5   807.3    0.00 
  50    2:00   0.00   36.7    87   14.7   197    20.0   807.3    0.00 
  50    2:10   0.00   36.4    87   14.6   196    19.9   807.1    0.00 
  50    2:20   0.00   36.3    87   14.8   200    20.1   807.1    0.00 
  50    2:30   0.00   36.3    87   16.6   200    23.9   807.1    0.00 
  50    2:40   0.00   36.4    87   16.2   202    21.0   807.0    0.00 
  50    2:50   0.00   36.8    85   18.2   202    23.9   807.0    0.00 
  50    3:00   0.00   37.1    84   18.2   200    22.8   807.1    0.00 
  50    3:10   0.00   37.1    83   17.6   200    23.5   807.1    0.00 
  50    3:20   0.00   36.5    85   14.7   201    20.7   807.2    0.00 
  50    3:30   0.00   36.3    86   16.9   195    21.7   807.1    0.00 
  50    3:40   0.00   36.0    87   15.3   199    19.7   807.3    0.00 
  50    3:50   0.00   35.6    88   15.2   198    22.6   807.4    0.00 
  50    4:00   0.00   35.2    89   13.2   203    17.8   807.6    0.00 
  50    4:10   0.00   34.7    89    8.8   216    13.9   807.9    0.00 
  50    4:20   0.00   34.5    92    5.2   225     9.8   808.1    0.00 
  50    4:30   0.00   34.7    91    9.7   205    14.8   808.1    0.00 
  50    4:40   0.00   34.1    92   10.3   204    13.4   808.0    0.00 
  50    4:50   0.00   34.3    93   12.0   206    17.4   808.0    0.00 
  50    5:00   0.00   35.0    90   15.3   202    20.2   808.0    0.00 
  50    5:10   0.00   35.4    88   15.1   202    20.5   808.1    0.00 
  50    5:20   0.00   35.4    88   14.7   204    21.5   808.1    0.00 
  50    5:30   0.00   35.3    88   15.5   201    20.0   808.1    0.00 
  50    5:40   0.00   35.1    88   17.0   198    24.3   808.1    0.00 
  50    5:50   0.00   35.2    89   17.8   197    23.3   808.3    0.00 
  50    6:00   0.00   35.0    89   15.8   196    20.4   808.5    0.00 
  50    6:10   0.00   34.9    89   14.1   201    17.3   808.7    0.00 
  50    6:20   0.00   35.3    89   14.8   206    19.3   809.0    0.00 
  50    6:30   0.00   35.5    88   13.6   207    18.0   809.1    0.00 
  50    6:40   0.01   35.2    89   13.8   195    20.8   809.1    0.00 
  50    6:50   0.01   35.1    89   14.2   195    17.6   809.1    0.00 
  50    7:00   0.02   35.3    88   15.0   200    18.7   809.2    0.00 
  50    7:10   0.02   35.4    87   15.2   205    18.7   809.3    0.00 
  50    7:20   0.04   35.8    86   14.5   204    18.3   809.5    0.00 
  50    7:30   0.17   37.0    84   13.4   205    17.8   809.9    0.00 
  50    7:40   0.21   37.9    82   12.6   210    17.9   810.1    0.00 
  50    7:50   0.24   38.7    79   14.3   210    18.0   810.1    0.00 
  50    8:00   0.27   39.3    78   14.5   205    20.0   810.1    0.00 
  50    8:10   0.33   39.7    79   16.8   203    21.3   810.3    0.00 
  50    8:20   0.35   40.4    78   17.3   203    23.0   810.2    0.00 
  50    8:30   0.37   41.0    77   17.5   205    23.8   810.1    0.00 
  50    8:40   0.44   41.9    75   16.1   200    21.2   810.2    0.00 
  50    8:50   0.27   42.0    74   16.1   203    22.8   810.4    0.00 
  50    9:00   0.24   41.5    72   16.4   205    21.9   810.5    0.00 
  50    9:10   0.44   41.8    74   15.3   194    20.7   810.5    0.00 
  50    9:20   0.50   43.3    72   15.4   198    20.5   810.5    0.00 
  50    9:30   0.47   43.4    71   17.0   200    23.3   810.4    0.00 
  50    9:40   0.59   43.9    70   17.4   203    23.8   810.4    0.00 
  50    9:50   0.71   45.1    64   19.4   210    27.0   810.4    0.00 
  50   10:00   0.55   45.0    62   18.7   214    25.6   810.4    0.00 
  50   10:10   0.54   44.7    64   17.4   198    25.1   810.4    0.00 
  50   10:20   0.65   45.8    61   19.1   200    26.0   810.4    0.00 
  50   10:30   0.39   45.1    61   18.0   202    23.9   810.5    0.00 
  50   10:40   0.21   44.0    63   15.7   198    21.2   810.5    0.00 
  50   10:50   0.45   44.9    58   15.8   206    20.6   810.5    0.00 
  50   11:00   0.71   46.6    56   17.2   214    23.2   810.4    0.00 
  50   11:10   0.72   47.2    54   16.9   219    24.7   810.4    0.00 
  50   11:20   0.72   47.4    52   17.3   216    24.1   810.2    0.00 
  50   11:30   0.67   47.3    52   19.5   219    26.2   810.1    0.00 
  50   11:40   0.44   46.9    52   18.7   216    26.1   810.0    0.00 
  50   11:50   0.51   47.7    50   19.1   214    24.1   810.1    0.00 
  50   12:00   0.15   46.2    51   16.6   204    25.6   810.2    0.00 
  50   12:10   0.14   45.8    51   14.1   206    20.9   810.2    0.00 
  50   12:20   0.14   46.2    51   12.1   205    19.6   810.2    0.00 
  50   12:30   0.15   46.6    47   12.8   214    19.7   810.2    0.00 
  50   12:40   0.15   47.0    43   13.8   211    18.9   810.2    0.00 
  50   12:50   0.20   47.2    44   12.0   238    24.7   810.2    0.00 
  50   13:00   0.60   49.0    42   15.7   229    22.9   810.3    0.00 
  50   13:10   0.77   50.1    41   16.9   233    23.5   810.4    0.00 
  50   13:20   0.67   50.1    41   17.1   237    25.3   810.3    0.00 
  50   13:30   0.63   50.0    41   22.2   232    29.6   810.2    0.00 
  50   13:40   0.60   50.1    43   19.4   241    26.2   810.3    0.00 
  50   13:50   0.59   50.1    42   22.2   235    30.5   810.4    0.00 
  50   14:00   0.56   49.7    43   20.3   244    27.3   810.5    0.00 
  50   14:10   0.54   50.1    40   22.4   238    29.7   810.5    0.00 
  50   14:20   0.52   49.9    39   21.1   239    30.0   810.8    0.00 
  50   14:30   0.50   50.1    38   19.8   245    31.1   810.8    0.00 
  50   14:40   0.47   50.2    38   18.3   243    26.1   810.9    0.00 
  50   14:50   0.44   50.2    37   15.5   231    24.5   811.1    0.00 

Return to Steptoe Valley North graphs page.


Western Regional Climate Center,wrcc@dri.edu